createdAt,value
2022-11-08T00:00:11.470Z,12.50
2022-11-08T00:02:38.461Z,12.40
2022-11-08T00:05:24.660Z,12.40
2022-11-08T00:08:10.048Z,12.40
2022-11-08T00:10:55.494Z,12.40
2022-11-08T00:13:40.932Z,12.30
2022-11-08T00:16:07.868Z,12.30
2022-11-08T00:18:34.646Z,12.30
2022-11-08T00:21:03.181Z,12.30
2022-11-08T00:23:30.105Z,12.30
2022-11-08T00:25:57.102Z,12.30
2022-11-08T00:28:23.895Z,12.20
2022-11-08T00:30:50.797Z,12.20
2022-11-08T00:33:17.648Z,12.20
2022-11-08T00:35:44.438Z,12.20
2022-11-08T00:38:11.284Z,12.20
2022-11-08T00:40:38.878Z,12.10
2022-11-08T00:43:05.761Z,12.10
2022-11-08T00:45:32.525Z,12.10
2022-11-08T00:47:59.309Z,12.10
2022-11-08T00:50:26.105Z,12.10
2022-11-08T00:52:52.877Z,12.00
2022-11-08T00:55:19.646Z,12.00
2022-11-08T00:57:59.000Z,12.00
2022-11-08T01:00:26.909Z,12.00
2022-11-08T01:03:13.673Z,12.00
2022-11-08T01:05:40.635Z,12.00
2022-11-08T01:08:07.566Z,11.90
2022-11-08T01:10:35.266Z,11.90
2022-11-08T01:13:02.017Z,11.90
2022-11-08T01:15:29.129Z,11.80
2022-11-08T01:17:55.968Z,11.80
2022-11-08T01:20:22.806Z,11.80
2022-11-08T01:22:49.584Z,11.70
2022-11-08T01:25:16.454Z,11.70
2022-11-08T01:27:44.034Z,11.70
2022-11-08T01:30:11.154Z,11.70
2022-11-08T01:32:38.248Z,11.70
2022-11-08T01:35:05.950Z,11.60
2022-11-08T01:37:32.831Z,11.60
2022-11-08T01:39:59.596Z,11.60
2022-11-08T01:42:33.594Z,11.50
2022-11-08T01:45:11.726Z,11.50
2022-11-08T01:47:38.577Z,11.50
2022-11-08T01:50:16.697Z,11.50
2022-11-08T01:52:53.550Z,11.50
2022-11-08T01:55:28.210Z,11.40
2022-11-08T01:57:59.964Z,11.40
2022-11-08T02:00:26.932Z,11.40
2022-11-08T02:03:05.002Z,11.40
2022-11-08T02:05:33.232Z,11.40
2022-11-08T02:08:32.739Z,11.40
2022-11-08T02:10:59.528Z,11.40
2022-11-08T02:13:30.077Z,11.30
2022-11-08T02:15:57.622Z,11.40
2022-11-08T02:18:29.571Z,11.40
2022-11-08T02:21:21.420Z,11.30
2022-11-08T02:23:54.500Z,11.30
2022-11-08T02:26:32.317Z,11.30
2022-11-08T02:29:19.613Z,11.30
2022-11-08T02:31:46.411Z,11.30
2022-11-08T02:34:13.382Z,11.30
2022-11-08T02:36:40.817Z,11.30
2022-11-08T02:39:07.616Z,11.20
2022-11-08T02:41:34.364Z,11.20
2022-11-08T02:44:01.126Z,11.20
2022-11-08T02:46:27.900Z,11.20
2022-11-08T02:48:54.728Z,11.20
2022-11-08T02:51:21.506Z,11.20
2022-11-08T02:53:48.713Z,11.10
2022-11-08T02:56:15.589Z,11.10
2022-11-08T02:58:42.350Z,11.10
2022-11-08T03:01:09.160Z,11.00
2022-11-08T03:03:36.159Z,11.00
2022-11-08T03:06:03.623Z,11.00
2022-11-08T03:08:30.393Z,10.90
2022-11-08T03:11:00.640Z,10.90
2022-11-08T03:13:27.749Z,10.80
2022-11-08T03:15:54.529Z,10.80
2022-11-08T03:18:21.362Z,10.70
2022-11-08T03:20:48.154Z,10.70
2022-11-08T03:23:14.922Z,10.70
2022-11-08T03:25:41.692Z,10.70
2022-11-08T03:28:09.847Z,10.60
2022-11-08T03:30:37.503Z,10.60
2022-11-08T03:33:04.521Z,10.60
2022-11-08T03:35:32.011Z,10.60
2022-11-08T03:37:58.989Z,10.60
2022-11-08T03:40:26.837Z,10.50
2022-11-08T03:42:57.193Z,10.60
2022-11-08T03:45:24.015Z,10.60
2022-11-08T03:47:50.792Z,10.60
2022-11-08T03:50:18.050Z,10.60
2022-11-08T03:52:51.436Z,10.60
2022-11-08T03:55:21.872Z,10.60
2022-11-08T03:57:50.720Z,10.60
2022-11-08T04:00:24.588Z,10.60
2022-11-08T04:02:52.199Z,10.60
2022-11-08T04:05:19.355Z,10.60
2022-11-08T04:07:46.214Z,10.60
2022-11-08T04:10:14.141Z,10.50
2022-11-08T04:13:01.757Z,10.50
2022-11-08T04:15:30.620Z,10.50
2022-11-08T04:18:17.313Z,10.50
2022-11-08T04:21:07.677Z,10.50
2022-11-08T04:23:37.762Z,10.50
2022-11-08T04:26:11.524Z,10.50
2022-11-08T04:28:40.354Z,10.50
2022-11-08T04:31:14.607Z,10.50
2022-11-08T04:33:42.447Z,10.40
2022-11-08T04:36:16.229Z,10.50
2022-11-08T04:38:43.188Z,10.50
2022-11-08T04:41:13.895Z,10.50
2022-11-08T04:43:41.786Z,10.40
2022-11-08T04:46:13.281Z,10.50
2022-11-08T04:48:41.554Z,10.50
2022-11-08T04:51:21.405Z,10.40
2022-11-08T04:53:48.267Z,10.40
2022-11-08T04:56:21.034Z,10.40
2022-11-08T04:58:51.169Z,10.50
2022-11-08T05:01:21.966Z,10.50
2022-11-08T05:03:51.730Z,10.50
2022-11-08T05:06:29.600Z,10.40
2022-11-08T05:08:58.684Z,10.40
2022-11-08T05:11:28.626Z,10.40
2022-11-08T05:13:56.332Z,10.40
2022-11-08T05:16:25.914Z,10.40
2022-11-08T05:18:53.493Z,10.40
2022-11-08T05:21:41.240Z,10.30
2022-11-08T05:24:13.369Z,10.30
2022-11-08T05:26:43.417Z,10.30
2022-11-08T05:29:11.355Z,10.30
2022-11-08T05:31:38.992Z,10.20
2022-11-08T05:34:07.324Z,10.20
2022-11-08T05:36:34.442Z,10.20
2022-11-08T05:39:01.262Z,10.10
2022-11-08T05:41:28.087Z,10.10
2022-11-08T05:43:55.921Z,10.10
2022-11-08T05:46:24.044Z,10.10
2022-11-08T05:48:51.325Z,10.10
2022-11-08T05:51:21.301Z,10.00
2022-11-08T05:53:48.762Z,10.10
2022-11-08T05:56:16.458Z,10.10
2022-11-08T05:58:43.605Z,10.10
2022-11-08T06:01:14.941Z,10.10
2022-11-08T06:03:42.524Z,10.10
2022-11-08T06:06:19.587Z,10.20
2022-11-08T06:08:50.385Z,10.20
2022-11-08T06:11:25.890Z,10.20
2022-11-08T06:13:54.310Z,10.20
2022-11-08T06:16:23.895Z,10.30
2022-11-08T06:18:51.132Z,10.30
2022-11-08T06:21:20.793Z,10.30
2022-11-08T06:23:47.776Z,10.30
2022-11-08T06:26:14.685Z,10.30
2022-11-08T06:28:41.523Z,10.30
2022-11-08T06:31:08.392Z,10.30
2022-11-08T06:33:35.492Z,10.30
2022-11-08T06:36:02.520Z,10.30
2022-11-08T06:38:29.965Z,10.30
2022-11-08T06:41:00.364Z,10.40
2022-11-08T06:43:27.729Z,10.40
2022-11-08T06:45:54.826Z,10.40
2022-11-08T06:48:21.599Z,10.50
2022-11-08T06:50:48.471Z,10.40
2022-11-08T06:53:15.649Z,10.40
2022-11-08T06:55:42.726Z,10.40
2022-11-08T06:58:10.882Z,10.50
2022-11-08T07:00:38.276Z,10.50
2022-11-08T07:03:05.143Z,10.50
2022-11-08T07:05:34.992Z,10.40
2022-11-08T07:08:04.319Z,10.50
2022-11-08T07:10:33.170Z,10.50
2022-11-08T07:13:12.155Z,10.50
2022-11-08T07:15:39.864Z,10.50
2022-11-08T07:18:12.036Z,10.50
2022-11-08T07:20:40.682Z,10.50
2022-11-08T07:23:08.651Z,10.50
2022-11-08T07:25:36.337Z,10.50
2022-11-08T07:28:06.303Z,10.60
2022-11-08T07:30:35.361Z,10.60
2022-11-08T07:33:03.119Z,10.50
2022-11-08T07:35:30.086Z,10.60
2022-11-08T07:37:57.303Z,10.70
2022-11-08T07:40:24.316Z,10.70
2022-11-08T07:43:11.090Z,10.70
2022-11-08T07:45:38.287Z,10.70
2022-11-08T07:48:11.919Z,10.80
2022-11-08T07:50:41.797Z,10.80
2022-11-08T07:53:09.812Z,10.80
2022-11-08T07:55:39.204Z,10.90
2022-11-08T07:58:07.364Z,10.90
2022-11-08T08:00:36.772Z,10.90
2022-11-08T08:03:06.818Z,10.90
2022-11-08T08:05:40.961Z,11.00
2022-11-08T08:08:08.961Z,11.00
2022-11-08T08:10:37.045Z,11.00
2022-11-08T08:13:05.081Z,11.10
2022-11-08T08:15:32.865Z,11.10
2022-11-08T08:18:01.974Z,11.20
2022-11-08T08:20:30.567Z,11.20
2022-11-08T08:22:58.738Z,11.30
2022-11-08T08:25:26.993Z,11.30
2022-11-08T08:27:59.739Z,11.40
2022-11-08T08:30:26.938Z,11.40
2022-11-08T08:33:29.593Z,11.50
2022-11-08T08:35:57.306Z,11.50
2022-11-08T08:38:24.660Z,11.50
2022-11-08T08:40:51.899Z,11.60
2022-11-08T08:43:20.262Z,11.70
2022-11-08T08:45:47.508Z,11.70
2022-11-08T08:48:14.589Z,11.70
2022-11-08T08:50:41.820Z,11.80
2022-11-08T08:53:10.240Z,11.80
2022-11-08T08:55:39.929Z,11.90
2022-11-08T08:58:06.773Z,11.90
2022-11-08T09:03:21.162Z,12.00
2022-11-08T09:05:48.213Z,12.00
2022-11-08T09:08:15.259Z,12.10
2022-11-08T09:10:42.358Z,12.10
2022-11-08T09:13:09.240Z,12.20
2022-11-08T09:15:36.137Z,12.30
2022-11-08T09:18:03.421Z,12.30
2022-11-08T09:20:30.298Z,12.40
2022-11-08T09:23:02.980Z,12.50
2022-11-08T09:25:30.109Z,12.60
2022-11-08T09:28:02.723Z,12.60
2022-11-08T09:30:29.949Z,12.70
2022-11-08T09:33:01.732Z,12.90
2022-11-08T09:35:30.112Z,13.00
2022-11-08T09:37:57.448Z,13.10
2022-11-08T09:40:37.910Z,13.20
2022-11-08T09:43:29.416Z,13.30
2022-11-08T09:45:57.468Z,13.50
2022-11-08T09:48:42.715Z,13.50
2022-11-08T09:55:22.370Z,13.80
2022-11-08T09:58:22.602Z,14.00
2022-11-08T10:00:50.945Z,14.10
2022-11-08T10:03:20.456Z,14.20
2022-11-08T10:06:30.395Z,14.30
2022-11-08T10:09:11.721Z,14.40
2022-11-08T10:12:00.325Z,14.50
2022-11-08T10:14:54.712Z,14.60
2022-11-08T10:17:39.773Z,14.70
2022-11-08T10:20:35.373Z,14.90
2022-11-08T10:23:32.193Z,15.00
2022-11-08T10:26:09.637Z,15.20
2022-11-08T10:28:53.512Z,15.40
2022-11-08T10:31:21.099Z,15.50
2022-11-08T10:33:54.940Z,15.70
2022-11-08T10:36:42.352Z,15.80
2022-11-08T10:39:30.596Z,16.00
2022-11-08T10:42:30.248Z,16.20
2022-11-08T10:44:57.653Z,16.30
2022-11-08T10:47:32.961Z,16.40
2022-11-08T10:50:04.100Z,16.50
2022-11-08T10:52:58.014Z,16.50
2022-11-08T10:55:38.469Z,16.70
2022-11-08T10:58:39.142Z,16.70
2022-11-08T11:01:23.119Z,16.80
2022-11-08T11:03:52.326Z,16.90
2022-11-08T11:06:31.265Z,16.90
2022-11-08T11:09:27.331Z,17.00
2022-11-08T11:12:08.557Z,17.00
2022-11-08T11:14:36.967Z,17.00
2022-11-08T11:17:19.061Z,17.10
2022-11-08T11:19:55.663Z,17.10
2022-11-08T11:22:32.822Z,17.20
2022-11-08T11:25:15.466Z,17.20
2022-11-08T11:27:43.192Z,17.20
2022-11-08T11:30:12.669Z,17.30
2022-11-08T11:32:40.149Z,17.30
2022-11-08T11:35:15.263Z,17.40
2022-11-08T11:37:48.458Z,17.40
2022-11-08T11:40:32.635Z,17.50
2022-11-08T11:43:27.334Z,17.60
2022-11-08T11:46:22.833Z,17.60
2022-11-08T11:49:01.431Z,17.70
2022-11-08T11:51:30.536Z,17.80
2022-11-08T11:53:59.017Z,17.90
2022-11-08T11:57:04.658Z,18.00
2022-11-08T12:00:10.799Z,18.10
2022-11-08T12:02:46.841Z,18.20
2022-11-08T12:05:49.082Z,18.30
2022-11-08T12:08:48.734Z,18.40
2022-11-08T12:11:36.604Z,18.50
2022-11-08T12:14:36.380Z,18.60
2022-11-08T12:17:10.400Z,18.60
2022-11-08T12:20:26.682Z,18.70
2022-11-08T12:23:17.712Z,18.70
2022-11-08T12:26:26.654Z,18.80
2022-11-08T12:29:11.545Z,18.80
2022-11-08T12:32:09.941Z,18.80
2022-11-08T12:34:49.439Z,18.80
2022-11-08T12:37:58.796Z,18.80
2022-11-08T12:40:52.358Z,18.80
2022-11-08T12:43:34.063Z,18.90
2022-11-08T12:46:12.868Z,18.90
2022-11-08T12:49:09.176Z,18.90
2022-11-08T12:52:09.815Z,18.80
2022-11-08T12:54:44.013Z,18.80
2022-11-08T12:57:16.939Z,18.90
2022-11-08T12:59:51.851Z,18.80
2022-11-08T13:02:30.197Z,18.80
2022-11-08T13:05:07.657Z,18.90
2022-11-08T13:07:44.846Z,18.90
2022-11-08T13:10:22.589Z,18.80
2022-11-08T13:13:26.311Z,18.90
2022-11-08T13:16:17.617Z,18.90
2022-11-08T13:18:47.448Z,18.90
2022-11-08T13:21:30.085Z,18.90
2022-11-08T13:24:09.977Z,18.90
2022-11-08T13:26:50.135Z,19.00
2022-11-08T13:29:20.024Z,19.00
2022-11-08T13:31:56.783Z,19.10
2022-11-08T13:34:55.853Z,19.20
2022-11-08T13:37:59.653Z,19.40
2022-11-08T13:41:07.812Z,19.50
2022-11-08T13:43:35.793Z,19.60
2022-11-08T13:46:25.848Z,19.80
2022-11-08T13:49:00.965Z,19.90
2022-11-08T13:51:37.627Z,19.90
2022-11-08T13:54:22.768Z,20.00
2022-11-08T13:56:55.125Z,20.10
2022-11-08T13:59:50.863Z,20.10
2022-11-08T14:02:23.704Z,20.20
2022-11-08T14:04:53.640Z,20.20
2022-11-08T14:07:47.039Z,20.20
2022-11-08T14:10:27.689Z,20.20
2022-11-08T14:13:55.654Z,20.10
2022-11-08T14:16:30.616Z,20.10
2022-11-08T14:19:25.259Z,20.00
2022-11-08T14:21:58.902Z,20.00
2022-11-08T14:24:36.528Z,20.00
2022-11-08T14:27:04.094Z,20.00
2022-11-08T14:29:30.874Z,19.90
2022-11-08T14:32:19.665Z,19.90
2022-11-08T14:34:46.580Z,19.90
2022-11-08T14:37:27.197Z,19.90
2022-11-08T14:39:54.691Z,19.80
2022-11-08T14:42:25.971Z,19.80
2022-11-08T14:44:56.753Z,19.70
2022-11-08T14:47:30.229Z,19.70
2022-11-08T14:50:00.715Z,19.70
2022-11-08T14:52:32.394Z,19.60
2022-11-08T14:55:07.572Z,19.60
2022-11-08T14:57:39.775Z,19.50
2022-11-08T15:00:12.787Z,19.50
2022-11-08T15:03:03.941Z,19.40
2022-11-08T15:06:13.541Z,19.40
2022-11-08T15:08:52.349Z,19.40
2022-11-08T15:11:35.243Z,19.30
2022-11-08T15:14:17.373Z,19.20
2022-11-08T15:16:50.985Z,19.20
2022-11-08T15:19:46.142Z,19.10
2022-11-08T15:22:32.113Z,19.10
2022-11-08T15:25:29.297Z,19.00
2022-11-08T15:28:12.838Z,18.90
2022-11-08T15:30:44.091Z,18.90
2022-11-08T15:33:23.317Z,18.80
2022-11-08T15:35:50.871Z,18.80
2022-11-08T15:38:38.433Z,18.70
2022-11-08T15:41:25.501Z,18.70
2022-11-08T15:44:05.448Z,18.60
2022-11-08T15:46:38.177Z,18.60
2022-11-08T15:49:26.016Z,18.60
2022-11-08T15:51:56.214Z,18.50
2022-11-08T15:54:24.743Z,18.40
2022-11-08T15:56:54.470Z,18.40
2022-11-08T15:59:27.534Z,18.30
2022-11-08T16:02:01.680Z,18.30
2022-11-08T16:04:29.902Z,18.20
2022-11-08T16:06:57.726Z,18.20
2022-11-08T16:09:24.595Z,18.10
2022-11-08T16:11:53.832Z,18.10
2022-11-08T16:14:24.891Z,18.00
2022-11-08T16:16:51.870Z,18.00
2022-11-08T16:19:24.798Z,18.00
2022-11-08T16:21:52.904Z,17.90
2022-11-08T16:24:20.089Z,17.90
2022-11-08T16:26:48.722Z,17.80
2022-11-08T16:29:22.497Z,17.80
2022-11-08T16:31:51.120Z,17.70
2022-11-08T16:34:18.696Z,17.70
2022-11-08T16:36:46.720Z,17.70
2022-11-08T16:39:18.955Z,17.60
2022-11-08T16:41:46.025Z,17.60
2022-11-08T16:44:13.240Z,17.50
2022-11-08T16:46:40.989Z,17.50
2022-11-08T16:49:21.405Z,17.40
2022-11-08T16:51:49.445Z,17.40
2022-11-08T16:54:24.865Z,17.30
2022-11-08T16:56:51.867Z,17.30
2022-11-08T16:59:20.453Z,17.20
2022-11-08T17:01:49.213Z,17.10
2022-11-08T17:04:16.069Z,17.10
2022-11-08T17:06:42.892Z,17.10
2022-11-08T17:09:09.920Z,17.10
2022-11-08T17:11:39.551Z,17.00
2022-11-08T17:14:07.088Z,16.90
2022-11-08T17:16:33.851Z,16.90
2022-11-08T17:19:00.680Z,16.90
2022-11-08T17:21:44.175Z,16.90
2022-11-08T17:24:14.628Z,16.80
2022-11-08T17:26:43.916Z,16.80
2022-11-08T17:29:10.798Z,16.70
2022-11-08T17:31:37.576Z,16.70
2022-11-08T17:34:04.573Z,16.70
2022-11-08T17:36:31.354Z,16.60
2022-11-08T17:38:58.125Z,16.50
2022-11-08T17:41:25.214Z,16.50
2022-11-08T17:43:51.976Z,16.50
2022-11-08T17:46:19.251Z,16.40
2022-11-08T17:48:48.160Z,16.40
2022-11-08T17:51:15.697Z,16.30
2022-11-08T17:53:43.285Z,16.30
2022-11-08T17:56:11.513Z,16.20
2022-11-08T17:58:39.793Z,16.20
2022-11-08T18:01:07.717Z,16.20
2022-11-08T18:03:35.189Z,16.20
2022-11-08T18:06:11.260Z,16.10
2022-11-08T18:08:38.207Z,16.10
2022-11-08T18:11:05.588Z,16.00
2022-11-08T18:13:35.086Z,16.00
2022-11-08T18:16:15.493Z,16.00
2022-11-08T18:18:43.702Z,15.90
2022-11-08T18:21:11.138Z,15.90
2022-11-08T18:23:45.173Z,15.80
2022-11-08T18:26:13.082Z,15.80
2022-11-08T18:28:44.245Z,15.80
2022-11-08T18:31:15.598Z,15.80
2022-11-08T18:33:43.379Z,15.70
2022-11-08T18:36:23.234Z,15.70
2022-11-08T18:38:51.995Z,15.70
2022-11-08T18:41:22.660Z,15.60
2022-11-08T18:43:49.809Z,15.60
2022-11-08T18:46:20.589Z,15.60
2022-11-08T18:48:48.739Z,15.60
2022-11-08T18:51:18.057Z,15.60
2022-11-08T18:53:45.307Z,15.60
2022-11-08T18:56:13.290Z,15.50
2022-11-08T18:58:40.961Z,15.50
2022-11-08T19:01:08.060Z,15.50
2022-11-08T19:03:35.480Z,15.50
2022-11-08T19:06:02.288Z,15.50
2022-11-08T19:08:30.556Z,15.50
2022-11-08T19:11:10.543Z,15.50
2022-11-08T19:13:39.605Z,15.40
2022-11-08T19:16:13.468Z,15.40
2022-11-08T19:18:42.347Z,15.40
2022-11-08T19:21:22.117Z,15.40
2022-11-08T19:23:50.801Z,15.30
2022-11-08T19:26:28.768Z,15.30
2022-11-08T19:28:57.068Z,15.30
2022-11-08T19:31:25.687Z,15.20
2022-11-08T19:33:54.372Z,15.20
2022-11-08T19:36:27.500Z,15.20
2022-11-08T19:38:56.449Z,15.10
2022-11-08T19:41:26.668Z,15.10
2022-11-08T19:43:54.956Z,15.10
2022-11-08T19:46:29.396Z,15.10
2022-11-08T19:48:57.480Z,15.00
2022-11-08T19:51:27.825Z,15.00
2022-11-08T19:53:57.216Z,15.00
2022-11-08T19:56:37.999Z,15.00
2022-11-08T19:59:11.031Z,15.00
2022-11-08T20:01:39.942Z,15.10
2022-11-08T20:04:10.773Z,15.10
2022-11-08T20:06:38.327Z,15.10
2022-11-08T20:09:05.861Z,15.10
2022-11-08T20:11:40.068Z,15.10
2022-11-08T20:14:08.214Z,15.10
2022-11-08T20:16:42.715Z,15.10
2022-11-08T20:19:16.485Z,15.10
2022-11-08T20:21:45.898Z,15.10
2022-11-08T20:24:14.378Z,15.10
2022-11-08T20:26:42.696Z,15.10
2022-11-08T20:29:10.334Z,15.10
2022-11-08T20:31:38.783Z,15.10
2022-11-08T20:34:09.886Z,15.10
2022-11-08T20:36:37.727Z,15.10
2022-11-08T20:39:07.770Z,15.00
2022-11-08T20:41:37.466Z,15.00
2022-11-08T20:44:06.682Z,15.00
2022-11-08T20:46:34.683Z,15.00
2022-11-08T20:49:02.194Z,15.00
2022-11-08T20:51:30.861Z,15.00
2022-11-08T20:54:00.354Z,15.00
2022-11-08T20:56:28.870Z,15.00
2022-11-08T20:58:56.117Z,14.90
2022-11-08T21:01:27.805Z,14.90
2022-11-08T21:03:55.577Z,14.90
2022-11-08T21:06:23.849Z,14.90
2022-11-08T21:09:04.766Z,14.90
2022-11-08T21:11:37.153Z,14.90
2022-11-08T21:14:05.260Z,14.90
2022-11-08T21:16:46.835Z,14.80
2022-11-08T21:19:19.971Z,14.80
2022-11-08T21:21:49.931Z,14.80
2022-11-08T21:24:17.182Z,14.80
2022-11-08T21:26:44.072Z,14.80
2022-11-08T21:29:10.882Z,14.70
2022-11-08T21:31:37.682Z,14.70
2022-11-08T21:34:04.485Z,14.70
2022-11-08T21:36:31.318Z,14.70
2022-11-08T21:38:58.159Z,14.70
2022-11-08T21:41:24.962Z,14.60
2022-11-08T21:43:51.792Z,14.60
2022-11-08T21:46:25.200Z,14.60
2022-11-08T21:48:58.458Z,14.60
2022-11-08T21:51:26.754Z,14.60
2022-11-08T21:53:56.031Z,14.60
2022-11-08T21:56:26.045Z,14.60
2022-11-08T21:58:53.374Z,14.60
2022-11-08T22:01:24.321Z,14.60
2022-11-08T22:03:55.534Z,14.60
2022-11-08T22:06:22.652Z,14.60
2022-11-08T22:08:49.702Z,14.60
2022-11-08T22:11:16.496Z,14.60
2022-11-08T22:13:43.273Z,14.60
2022-11-08T22:16:10.162Z,14.60
2022-11-08T22:18:58.607Z,14.60
2022-11-08T22:21:40.705Z,14.70
2022-11-08T22:24:18.171Z,14.60
2022-11-08T22:26:45.609Z,14.60
2022-11-08T22:29:13.724Z,14.70
2022-11-08T22:31:41.908Z,14.60
2022-11-08T22:34:10.081Z,14.70
2022-11-08T22:36:44.333Z,14.70
2022-11-08T22:39:18.342Z,14.70
2022-11-08T22:41:47.500Z,14.70
2022-11-08T22:44:15.386Z,14.70
2022-11-08T22:46:43.738Z,14.70
2022-11-08T22:49:12.234Z,14.80
2022-11-08T22:51:40.856Z,14.70
2022-11-08T22:54:08.511Z,14.80
2022-11-08T22:56:35.834Z,14.80
2022-11-08T22:59:03.569Z,14.80
2022-11-08T23:01:30.405Z,14.90
2022-11-08T23:03:57.210Z,14.80
2022-11-08T23:06:24.022Z,14.80
2022-11-08T23:08:50.873Z,14.90
2022-11-08T23:11:36.718Z,14.90
2022-11-08T23:14:23.174Z,14.90
2022-11-08T23:16:49.997Z,14.90
2022-11-08T23:19:39.525Z,15.00
2022-11-08T23:22:33.283Z,14.90
2022-11-08T23:25:00.108Z,15.00
2022-11-08T23:27:47.628Z,15.00
2022-11-08T23:30:36.130Z,15.00
2022-11-08T23:33:05.666Z,15.00
2022-11-08T23:35:32.658Z,15.00
2022-11-08T23:37:59.469Z,15.00
2022-11-08T23:40:44.706Z,15.00
2022-11-08T23:43:38.213Z,15.10
2022-11-08T23:46:08.493Z,15.10
2022-11-08T23:48:37.056Z,15.10
2022-11-08T23:51:05.857Z,15.10
2022-11-08T23:53:36.590Z,15.10
2022-11-08T23:56:04.225Z,15.10
2022-11-08T23:58:32.150Z,15.10
